<?xml version="1.0" encoding="UTF-8" standalone="no" ?>
<gpx xmlns="http://www.topografix.com/GPX/1/1" xmlns:xsi="http://www.w3.org/2001/XMLSchema-instance" xsi:schemaLocation="http://www.topografix.com/GPX/1/1 http://www.topografix.com/GPX/1/1/gpx.xsd" version="1.1" creator="VisuGPX - https://www.visugpx.com">
  <metadata>
    <name>Les Chalets de Lens</name>
    <desc><![CDATA[File with points/tracks from Locus Map/3.50.1]]></desc>
  </metadata>
  <trk>
    <name><![CDATA[Les Chalets de Lens]]></name>
    <extensions>
      <line xmlns="http://www.topografix.com/GPX/gpx_style/0/2">
        <color>0000FF</color>
        <opacity>0.59</opacity>
        <width>7.0</width>
      </line>
    </extensions>
    <trkseg>
      <trkpt lat="46.23262" lon="6.76403">
        <ele>1566.3</ele>
        <time>2021-02-21T11:18:28.000Z</time>
      </trkpt>
      <trkpt lat="46.23262" lon="6.76403">
        <ele>1567.05</ele>
        <time>2021-02-21T11:18:40.000Z</time>
      </trkpt>
      <trkpt lat="46.23264" lon="6.76404">
        <ele>1566.03</ele>
        <time>2021-02-21T11:18:50.000Z</time>
      </trkpt>
      <trkpt lat="46.23265" lon="6.76404">
        <ele>1565.25</ele>
        <time>2021-02-21T11:21:17.000Z</time>
      </trkpt>
      <trkpt lat="46.23262" lon="6.76403">
        <ele>1566.57</ele>
        <time>2021-02-21T11:34:20.000Z</time>
      </trkpt>
      <trkpt lat="46.23269" lon="6.76406">
        <ele>1566.61</ele>
        <time>2021-02-21T11:34:30.000Z</time>
      </trkpt>
      <trkpt lat="46.23268" lon="6.76405">
        <ele>1566.65</ele>
        <time>2021-02-21T11:34:40.000Z</time>
      </trkpt>
      <trkpt lat="46.23267" lon="6.76405">
        <ele>1565.71</ele>
        <time>2021-02-21T11:36:41.000Z</time>
      </trkpt>
      <trkpt lat="46.23267" lon="6.76404">
        <ele>1566.52</ele>
        <time>2021-02-21T11:42:27.000Z</time>
      </trkpt>
      <trkpt lat="46.23267" lon="6.76403">
        <ele>1567.23</ele>
        <time>2021-02-21T11:52:43.000Z</time>
      </trkpt>
      <trkpt lat="46.23266" lon="6.76403">
        <ele>1566.79</ele>
        <time>2021-02-21T11:54:52.000Z</time>
      </trkpt>
      <trkpt lat="46.23265" lon="6.76401">
        <ele>1566.28</ele>
        <time>2021-02-21T11:55:02.000Z</time>
      </trkpt>
      <trkpt lat="46.23265" lon="6.76403">
        <ele>1566.87</ele>
        <time>2021-02-21T11:55:20.000Z</time>
      </trkpt>
      <trkpt lat="46.23266" lon="6.76403">
        <ele>1567.2</ele>
        <time>2021-02-21T11:58:09.000Z</time>
      </trkpt>
      <trkpt lat="46.23266" lon="6.76404">
        <ele>1567.32</ele>
        <time>2021-02-21T11:58:19.000Z</time>
      </trkpt>
      <trkpt lat="46.23265" lon="6.76404">
        <ele>1568.07</ele>
        <time>2021-02-21T11:58:59.000Z</time>
      </trkpt>
      <trkpt lat="46.23265" lon="6.76405">
        <ele>1568.28</ele>
        <time>2021-02-21T11:59:09.000Z</time>
      </trkpt>
      <trkpt lat="46.23265" lon="6.76415">
        <ele>1567.26</ele>
        <time>2021-02-21T11:59:19.000Z</time>
      </trkpt>
      <trkpt lat="46.23266" lon="6.76423">
        <ele>1566.55</ele>
        <time>2021-02-21T11:59:29.000Z</time>
      </trkpt>
      <trkpt lat="46.23269" lon="6.76432">
        <ele>1565.04</ele>
        <time>2021-02-21T11:59:39.000Z</time>
      </trkpt>
      <trkpt lat="46.23273" lon="6.76438">
        <ele>1564.23</ele>
        <time>2021-02-21T11:59:49.000Z</time>
      </trkpt>
      <trkpt lat="46.23277" lon="6.76447">
        <ele>1562.74</ele>
        <time>2021-02-21T11:59:59.000Z</time>
      </trkpt>
      <trkpt lat="46.23282" lon="6.76456">
        <ele>1561.82</ele>
        <time>2021-02-21T12:00:09.000Z</time>
      </trkpt>
      <trkpt lat="46.23286" lon="6.76466">
        <ele>1561.04</ele>
        <time>2021-02-21T12:00:19.000Z</time>
      </trkpt>
      <trkpt lat="46.23289" lon="6.76476">
        <ele>1559.88</ele>
        <time>2021-02-21T12:00:29.000Z</time>
      </trkpt>
      <trkpt lat="46.23293" lon="6.76484">
        <ele>1558.63</ele>
        <time>2021-02-21T12:00:39.000Z</time>
      </trkpt>
      <trkpt lat="46.23297" lon="6.76495">
        <ele>1557.08</ele>
        <time>2021-02-21T12:00:49.000Z</time>
      </trkpt>
      <trkpt lat="46.23305" lon="6.76502">
        <ele>1555.93</ele>
        <time>2021-02-21T12:00:59.000Z</time>
      </trkpt>
      <trkpt lat="46.23313" lon="6.76508">
        <ele>1554.96</ele>
        <time>2021-02-21T12:01:09.000Z</time>
      </trkpt>
      <trkpt lat="46.23322" lon="6.76506">
        <ele>1553.95</ele>
        <time>2021-02-21T12:01:19.000Z</time>
      </trkpt>
      <trkpt lat="46.23332" lon="6.76507">
        <ele>1552.89</ele>
        <time>2021-02-21T12:01:29.000Z</time>
      </trkpt>
      <trkpt lat="46.23342" lon="6.76507">
        <ele>1551.31</ele>
        <time>2021-02-21T12:01:39.000Z</time>
      </trkpt>
      <trkpt lat="46.23352" lon="6.76507">
        <ele>1550.34</ele>
        <time>2021-02-21T12:01:49.000Z</time>
      </trkpt>
      <trkpt lat="46.23361" lon="6.76503">
        <ele>1549.17</ele>
        <time>2021-02-21T12:01:59.000Z</time>
      </trkpt>
      <trkpt lat="46.2337" lon="6.76497">
        <ele>1548.27</ele>
        <time>2021-02-21T12:02:09.000Z</time>
      </trkpt>
      <trkpt lat="46.23379" lon="6.76492">
        <ele>1547.1</ele>
        <time>2021-02-21T12:02:19.000Z</time>
      </trkpt>
      <trkpt lat="46.23385" lon="6.7649">
        <ele>1546.59</ele>
        <time>2021-02-21T12:02:29.000Z</time>
      </trkpt>
      <trkpt lat="46.23391" lon="6.76493">
        <ele>1545.02</ele>
        <time>2021-02-21T12:02:39.000Z</time>
      </trkpt>
      <trkpt lat="46.23391" lon="6.76503">
        <ele>1544.03</ele>
        <time>2021-02-21T12:02:49.000Z</time>
      </trkpt>
      <trkpt lat="46.23385" lon="6.76514">
        <ele>1543.27</ele>
        <time>2021-02-21T12:02:59.000Z</time>
      </trkpt>
      <trkpt lat="46.2338" lon="6.76523">
        <ele>1542.11</ele>
        <time>2021-02-21T12:03:09.000Z</time>
      </trkpt>
      <trkpt lat="46.23373" lon="6.76532">
        <ele>1541.03</ele>
        <time>2021-02-21T12:03:19.000Z</time>
      </trkpt>
      <trkpt lat="46.23367" lon="6.76541">
        <ele>1540.19</ele>
        <time>2021-02-21T12:03:29.000Z</time>
      </trkpt>
      <trkpt lat="46.23362" lon="6.76547">
        <ele>1539.35</ele>
        <time>2021-02-21T12:03:39.000Z</time>
      </trkpt>
      <trkpt lat="46.23359" lon="6.76556">
        <ele>1539.11</ele>
        <time>2021-02-21T12:03:49.000Z</time>
      </trkpt>
      <trkpt lat="46.23351" lon="6.76564">
        <ele>1538.18</ele>
        <time>2021-02-21T12:03:59.000Z</time>
      </trkpt>
      <trkpt lat="46.23344" lon="6.76573">
        <ele>1536.87</ele>
        <time>2021-02-21T12:04:09.000Z</time>
      </trkpt>
      <trkpt lat="46.23337" lon="6.76579">
        <ele>1536.13</ele>
        <time>2021-02-21T12:04:19.000Z</time>
      </trkpt>
      <trkpt lat="46.23331" lon="6.76588">
        <ele>1535.32</ele>
        <time>2021-02-21T12:04:29.000Z</time>
      </trkpt>
      <trkpt lat="46.23328" lon="6.76596">
        <ele>1535.45</ele>
        <time>2021-02-21T12:04:39.000Z</time>
      </trkpt>
      <trkpt lat="46.23329" lon="6.766">
        <ele>1534.35</ele>
        <time>2021-02-21T12:04:49.000Z</time>
      </trkpt>
      <trkpt lat="46.2333" lon="6.76602">
        <ele>1534.38</ele>
        <time>2021-02-21T12:04:59.000Z</time>
      </trkpt>
      <trkpt lat="46.23332" lon="6.76607">
        <ele>1533.11</ele>
        <time>2021-02-21T12:05:09.000Z</time>
      </trkpt>
      <trkpt lat="46.2334" lon="6.76615">
        <ele>1531.63</ele>
        <time>2021-02-21T12:05:19.000Z</time>
      </trkpt>
      <trkpt lat="46.23347" lon="6.76622">
        <ele>1530.18</ele>
        <time>2021-02-21T12:05:29.000Z</time>
      </trkpt>
      <trkpt lat="46.23357" lon="6.76627">
        <ele>1528.78</ele>
        <time>2021-02-21T12:05:39.000Z</time>
      </trkpt>
      <trkpt lat="46.23367" lon="6.7663">
        <ele>1527.5</ele>
        <time>2021-02-21T12:05:49.000Z</time>
      </trkpt>
      <trkpt lat="46.23377" lon="6.7663">
        <ele>1526.58</ele>
        <time>2021-02-21T12:05:59.000Z</time>
      </trkpt>
      <trkpt lat="46.23386" lon="6.76625">
        <ele>1525.73</ele>
        <time>2021-02-21T12:06:09.000Z</time>
      </trkpt>
      <trkpt lat="46.23394" lon="6.76616">
        <ele>1524.69</ele>
        <time>2021-02-21T12:06:19.000Z</time>
      </trkpt>
      <trkpt lat="46.23402" lon="6.76606">
        <ele>1523.81</ele>
        <time>2021-02-21T12:06:29.000Z</time>
      </trkpt>
      <trkpt lat="46.23409" lon="6.76597">
        <ele>1522.87</ele>
        <time>2021-02-21T12:06:39.000Z</time>
      </trkpt>
      <trkpt lat="46.23417" lon="6.76589">
        <ele>1521.95</ele>
        <time>2021-02-21T12:06:49.000Z</time>
      </trkpt>
      <trkpt lat="46.23425" lon="6.7658">
        <ele>1521.08</ele>
        <time>2021-02-21T12:06:59.000Z</time>
      </trkpt>
      <trkpt lat="46.23433" lon="6.76571">
        <ele>1520.2</ele>
        <time>2021-02-21T12:07:09.000Z</time>
      </trkpt>
      <trkpt lat="46.23441" lon="6.76562">
        <ele>1519.03</ele>
        <time>2021-02-21T12:07:19.000Z</time>
      </trkpt>
      <trkpt lat="46.2345" lon="6.76553">
        <ele>1518.21</ele>
        <time>2021-02-21T12:07:29.000Z</time>
      </trkpt>
      <trkpt lat="46.23458" lon="6.76543">
        <ele>1516.93</ele>
        <time>2021-02-21T12:07:39.000Z</time>
      </trkpt>
      <trkpt lat="46.23465" lon="6.76535">
        <ele>1516.33</ele>
        <time>2021-02-21T12:07:49.000Z</time>
      </trkpt>
      <trkpt lat="46.23468" lon="6.76529">
        <ele>1515.61</ele>
        <time>2021-02-21T12:07:59.000Z</time>
      </trkpt>
      <trkpt lat="46.2347" lon="6.7653">
        <ele>1515.44</ele>
        <time>2021-02-21T12:08:13.000Z</time>
      </trkpt>
      <trkpt lat="46.23476" lon="6.76518">
        <ele>1514.53</ele>
        <time>2021-02-21T12:08:23.000Z</time>
      </trkpt>
      <trkpt lat="46.2348" lon="6.76504">
        <ele>1513.72</ele>
        <time>2021-02-21T12:08:33.000Z</time>
      </trkpt>
      <trkpt lat="46.23483" lon="6.76491">
        <ele>1512.71</ele>
        <time>2021-02-21T12:08:43.000Z</time>
      </trkpt>
      <trkpt lat="46.23486" lon="6.76478">
        <ele>1511.13</ele>
        <time>2021-02-21T12:08:53.000Z</time>
      </trkpt>
      <trkpt lat="46.23485" lon="6.76467">
        <ele>1510.15</ele>
        <time>2021-02-21T12:09:03.000Z</time>
      </trkpt>
      <trkpt lat="46.23485" lon="6.76452">
        <ele>1508.66</ele>
        <time>2021-02-21T12:09:13.000Z</time>
      </trkpt>
      <trkpt lat="46.23489" lon="6.76439">
        <ele>1508.33</ele>
        <time>2021-02-21T12:09:23.000Z</time>
      </trkpt>
      <trkpt lat="46.23494" lon="6.76431">
        <ele>1507.19</ele>
        <time>2021-02-21T12:09:33.000Z</time>
      </trkpt>
      <trkpt lat="46.23501" lon="6.76431">
        <ele>1506.32</ele>
        <time>2021-02-21T12:09:43.000Z</time>
      </trkpt>
      <trkpt lat="46.23512" lon="6.76438">
        <ele>1505.02</ele>
        <time>2021-02-21T12:09:53.000Z</time>
      </trkpt>
      <trkpt lat="46.23521" lon="6.76433">
        <ele>1504.04</ele>
        <time>2021-02-21T12:10:03.000Z</time>
      </trkpt>
      <trkpt lat="46.23531" lon="6.76437">
        <ele>1502.92</ele>
        <time>2021-02-21T12:10:13.000Z</time>
      </trkpt>
      <trkpt lat="46.23542" lon="6.76439">
        <ele>1501.59</ele>
        <time>2021-02-21T12:10:23.000Z</time>
      </trkpt>
      <trkpt lat="46.23554" lon="6.76437">
        <ele>1500.88</ele>
        <time>2021-02-21T12:10:33.000Z</time>
      </trkpt>
      <trkpt lat="46.23565" lon="6.76434">
        <ele>1499.21</ele>
        <time>2021-02-21T12:10:43.000Z</time>
      </trkpt>
      <trkpt lat="46.23577" lon="6.76428">
        <ele>1498.38</ele>
        <time>2021-02-21T12:10:53.000Z</time>
      </trkpt>
      <trkpt lat="46.23588" lon="6.76426">
        <ele>1496.88</ele>
        <time>2021-02-21T12:11:03.000Z</time>
      </trkpt>
      <trkpt lat="46.23593" lon="6.76433">
        <ele>1495.45</ele>
        <time>2021-02-21T12:11:13.000Z</time>
      </trkpt>
      <trkpt lat="46.23585" lon="6.76439">
        <ele>1494.6</ele>
        <time>2021-02-21T12:11:23.000Z</time>
      </trkpt>
      <trkpt lat="46.23578" lon="6.7645">
        <ele>1493.23</ele>
        <time>2021-02-21T12:11:33.000Z</time>
      </trkpt>
      <trkpt lat="46.23584" lon="6.76459">
        <ele>1492.06</ele>
        <time>2021-02-21T12:11:43.000Z</time>
      </trkpt>
      <trkpt lat="46.23593" lon="6.76458">
        <ele>1491.14</ele>
        <time>2021-02-21T12:11:53.000Z</time>
      </trkpt>
      <trkpt lat="46.23602" lon="6.76453">
        <ele>1489.72</ele>
        <time>2021-02-21T12:12:03.000Z</time>
      </trkpt>
      <trkpt lat="46.23611" lon="6.76441">
        <ele>1488.68</ele>
        <time>2021-02-21T12:12:13.000Z</time>
      </trkpt>
      <trkpt lat="46.23615" lon="6.76426">
        <ele>1487.65</ele>
        <time>2021-02-21T12:12:23.000Z</time>
      </trkpt>
      <trkpt lat="46.2362" lon="6.76412">
        <ele>1485.73</ele>
        <time>2021-02-21T12:12:33.000Z</time>
      </trkpt>
      <trkpt lat="46.23626" lon="6.76402">
        <ele>1484.84</ele>
        <time>2021-02-21T12:12:43.000Z</time>
      </trkpt>
      <trkpt lat="46.23631" lon="6.76389">
        <ele>1484.27</ele>
        <time>2021-02-21T12:12:53.000Z</time>
      </trkpt>
      <trkpt lat="46.23634" lon="6.76375">
        <ele>1482.76</ele>
        <time>2021-02-21T12:13:03.000Z</time>
      </trkpt>
      <trkpt lat="46.23638" lon="6.76364">
        <ele>1481.51</ele>
        <time>2021-02-21T12:13:13.000Z</time>
      </trkpt>
      <trkpt lat="46.23641" lon="6.76348">
        <ele>1480.6</ele>
        <time>2021-02-21T12:13:23.000Z</time>
      </trkpt>
      <trkpt lat="46.23644" lon="6.76335">
        <ele>1479.58</ele>
        <time>2021-02-21T12:13:33.000Z</time>
      </trkpt>
      <trkpt lat="46.23648" lon="6.76321">
        <ele>1478.95</ele>
        <time>2021-02-21T12:13:43.000Z</time>
      </trkpt>
      <trkpt lat="46.2365" lon="6.76305">
        <ele>1478.69</ele>
        <time>2021-02-21T12:13:53.000Z</time>
      </trkpt>
      <trkpt lat="46.23654" lon="6.76291">
        <ele>1477.73</ele>
        <time>2021-02-21T12:14:03.000Z</time>
      </trkpt>
      <trkpt lat="46.23659" lon="6.76279">
        <ele>1476.7</ele>
        <time>2021-02-21T12:14:13.000Z</time>
      </trkpt>
      <trkpt lat="46.23663" lon="6.76269">
        <ele>1476.32</ele>
        <time>2021-02-21T12:14:23.000Z</time>
      </trkpt>
      <trkpt lat="46.23667" lon="6.76262">
        <ele>1475.44</ele>
        <time>2021-02-21T12:14:33.000Z</time>
      </trkpt>
      <trkpt lat="46.23673" lon="6.7625">
        <ele>1473.87</ele>
        <time>2021-02-21T12:14:43.000Z</time>
      </trkpt>
      <trkpt lat="46.23679" lon="6.76243">
        <ele>1473.91</ele>
        <time>2021-02-21T12:14:53.000Z</time>
      </trkpt>
      <trkpt lat="46.23685" lon="6.76234">
        <ele>1473.35</ele>
        <time>2021-02-21T12:15:03.000Z</time>
      </trkpt>
      <trkpt lat="46.23689" lon="6.76229">
        <ele>1472.92</ele>
        <time>2021-02-21T12:15:13.000Z</time>
      </trkpt>
      <trkpt lat="46.23698" lon="6.76224">
        <ele>1471.65</ele>
        <time>2021-02-21T12:15:23.000Z</time>
      </trkpt>
      <trkpt lat="46.23709" lon="6.76216">
        <ele>1470.47</ele>
        <time>2021-02-21T12:15:33.000Z</time>
      </trkpt>
      <trkpt lat="46.23718" lon="6.76209">
        <ele>1468.71</ele>
        <time>2021-02-21T12:15:43.000Z</time>
      </trkpt>
      <trkpt lat="46.23725" lon="6.76203">
        <ele>1467.74</ele>
        <time>2021-02-21T12:15:53.000Z</time>
      </trkpt>
      <trkpt lat="46.23733" lon="6.76194">
        <ele>1467.55</ele>
        <time>2021-02-21T12:16:03.000Z</time>
      </trkpt>
      <trkpt lat="46.23739" lon="6.76189">
        <ele>1465.67</ele>
        <time>2021-02-21T12:16:13.000Z</time>
      </trkpt>
      <trkpt lat="46.23746" lon="6.76187">
        <ele>1465</ele>
        <time>2021-02-21T12:16:23.000Z</time>
      </trkpt>
      <trkpt lat="46.23755" lon="6.76181">
        <ele>1464.18</ele>
        <time>2021-02-21T12:16:33.000Z</time>
      </trkpt>
      <trkpt lat="46.23765" lon="6.76179">
        <ele>1463.42</ele>
        <time>2021-02-21T12:16:43.000Z</time>
      </trkpt>
      <trkpt lat="46.23776" lon="6.76181">
        <ele>1462.31</ele>
        <time>2021-02-21T12:16:53.000Z</time>
      </trkpt>
      <trkpt lat="46.23786" lon="6.76182">
        <ele>1460.62</ele>
        <time>2021-02-21T12:17:03.000Z</time>
      </trkpt>
      <trkpt lat="46.23793" lon="6.76186">
        <ele>1459.56</ele>
        <time>2021-02-21T12:17:13.000Z</time>
      </trkpt>
      <trkpt lat="46.238" lon="6.76189">
        <ele>1459.56</ele>
        <time>2021-02-21T12:17:23.000Z</time>
      </trkpt>
      <trkpt lat="46.23806" lon="6.76192">
        <ele>1459.34</ele>
        <time>2021-02-21T12:17:33.000Z</time>
      </trkpt>
      <trkpt lat="46.23811" lon="6.76195">
        <ele>1458.58</ele>
        <time>2021-02-21T12:17:43.000Z</time>
      </trkpt>
      <trkpt lat="46.2382" lon="6.76205">
        <ele>1456.43</ele>
        <time>2021-02-21T12:17:53.000Z</time>
      </trkpt>
      <trkpt lat="46.23828" lon="6.7621">
        <ele>1455.48</ele>
        <time>2021-02-21T12:18:03.000Z</time>
      </trkpt>
      <trkpt lat="46.23838" lon="6.76214">
        <ele>1454.35</ele>
        <time>2021-02-21T12:18:13.000Z</time>
      </trkpt>
      <trkpt lat="46.23847" lon="6.7622">
        <ele>1453.27</ele>
        <time>2021-02-21T12:18:23.000Z</time>
      </trkpt>
      <trkpt lat="46.23854" lon="6.76225">
        <ele>1452.39</ele>
        <time>2021-02-21T12:18:33.000Z</time>
      </trkpt>
      <trkpt lat="46.23862" lon="6.76231">
        <ele>1451.8</ele>
        <time>2021-02-21T12:18:43.000Z</time>
      </trkpt>
      <trkpt lat="46.23869" lon="6.76236">
        <ele>1451.05</ele>
        <time>2021-02-21T12:18:53.000Z</time>
      </trkpt>
      <trkpt lat="46.23877" lon="6.76238">
        <ele>1450.93</ele>
        <time>2021-02-21T12:19:03.000Z</time>
      </trkpt>
      <trkpt lat="46.23885" lon="6.76243">
        <ele>1450.38</ele>
        <time>2021-02-21T12:19:13.000Z</time>
      </trkpt>
      <trkpt lat="46.2389" lon="6.76243">
        <ele>1450.34</ele>
        <time>2021-02-21T12:19:23.000Z</time>
      </trkpt>
      <trkpt lat="46.23898" lon="6.76247">
        <ele>1449.96</ele>
        <time>2021-02-21T12:19:33.000Z</time>
      </trkpt>
      <trkpt lat="46.23904" lon="6.76248">
        <ele>1449.16</ele>
        <time>2021-02-21T12:19:43.000Z</time>
      </trkpt>
      <trkpt lat="46.23913" lon="6.76249">
        <ele>1447.78</ele>
        <time>2021-02-21T12:19:53.000Z</time>
      </trkpt>
      <trkpt lat="46.2392" lon="6.76253">
        <ele>1447.22</ele>
        <time>2021-02-21T12:20:03.000Z</time>
      </trkpt>
      <trkpt lat="46.23924" lon="6.76257">
        <ele>1447.69</ele>
        <time>2021-02-21T12:20:13.000Z</time>
      </trkpt>
      <trkpt lat="46.23926" lon="6.76261">
        <ele>1447.63</ele>
        <time>2021-02-21T12:20:23.000Z</time>
      </trkpt>
      <trkpt lat="46.23928" lon="6.76262">
        <ele>1446.68</ele>
        <time>2021-02-21T12:20:33.000Z</time>
      </trkpt>
      <trkpt lat="46.23934" lon="6.76264">
        <ele>1446.96</ele>
        <time>2021-02-21T12:20:43.000Z</time>
      </trkpt>
      <trkpt lat="46.2394" lon="6.76269">
        <ele>1446.14</ele>
        <time>2021-02-21T12:20:53.000Z</time>
      </trkpt>
      <trkpt lat="46.23948" lon="6.76274">
        <ele>1444.96</ele>
        <time>2021-02-21T12:21:03.000Z</time>
      </trkpt>
      <trkpt lat="46.23954" lon="6.76278">
        <ele>1444.93</ele>
        <time>2021-02-21T12:21:13.000Z</time>
      </trkpt>
      <trkpt lat="46.23957" lon="6.76281">
        <ele>1444.13</ele>
        <time>2021-02-21T12:21:23.000Z</time>
      </trkpt>
      <trkpt lat="46.23958" lon="6.76281">
        <ele>1443.9</ele>
        <time>2021-02-21T12:22:17.000Z</time>
      </trkpt>
      <trkpt lat="46.23968" lon="6.76288">
        <ele>1442.24</ele>
        <time>2021-02-21T12:22:27.000Z</time>
      </trkpt>
      <trkpt lat="46.23976" lon="6.76292">
        <ele>1441.31</ele>
        <time>2021-02-21T12:22:37.000Z</time>
      </trkpt>
      <trkpt lat="46.23985" lon="6.76298">
        <ele>1440.26</ele>
        <time>2021-02-21T12:22:47.000Z</time>
      </trkpt>
      <trkpt lat="46.23994" lon="6.76299">
        <ele>1439.74</ele>
        <time>2021-02-21T12:22:57.000Z</time>
      </trkpt>
      <trkpt lat="46.24001" lon="6.76295">
        <ele>1438.9</ele>
        <time>2021-02-21T12:23:07.000Z</time>
      </trkpt>
      <trkpt lat="46.24011" lon="6.76286">
        <ele>1438.04</ele>
        <time>2021-02-21T12:23:17.000Z</time>
      </trkpt>
      <trkpt lat="46.24018" lon="6.76281">
        <ele>1436.94</ele>
        <time>2021-02-21T12:23:27.000Z</time>
      </trkpt>
      <trkpt lat="46.24028" lon="6.76274">
        <ele>1436</ele>
        <time>2021-02-21T12:23:37.000Z</time>
      </trkpt>
      <trkpt lat="46.24038" lon="6.76273">
        <ele>1435.38</ele>
        <time>2021-02-21T12:23:47.000Z</time>
      </trkpt>
      <trkpt lat="46.24048" lon="6.76266">
        <ele>1433.92</ele>
        <time>2021-02-21T12:23:57.000Z</time>
      </trkpt>
      <trkpt lat="46.24052" lon="6.76262">
        <ele>1434.8</ele>
        <time>2021-02-21T12:24:07.000Z</time>
      </trkpt>
      <trkpt lat="46.24054" lon="6.76259">
        <ele>1435.63</ele>
        <time>2021-02-21T12:24:17.000Z</time>
      </trkpt>
      <trkpt lat="46.24059" lon="6.76257">
        <ele>1435.52</ele>
        <time>2021-02-21T12:24:27.000Z</time>
      </trkpt>
      <trkpt lat="46.24061" lon="6.76257">
        <ele>1435.26</ele>
        <time>2021-02-21T12:24:37.000Z</time>
      </trkpt>
      <trkpt lat="46.24062" lon="6.76256">
        <ele>1433.9</ele>
        <time>2021-02-21T12:24:47.000Z</time>
      </trkpt>
      <trkpt lat="46.24063" lon="6.76253">
        <ele>1433.58</ele>
        <time>2021-02-21T12:24:57.000Z</time>
      </trkpt>
      <trkpt lat="46.24063" lon="6.76256">
        <ele>1433.94</ele>
        <time>2021-02-21T12:25:07.000Z</time>
      </trkpt>
      <trkpt lat="46.24062" lon="6.76256">
        <ele>1432.91</ele>
        <time>2021-02-21T12:25:19.000Z</time>
      </trkpt>
      <trkpt lat="46.24063" lon="6.76257">
        <ele>1432.42</ele>
        <time>2021-02-21T12:25:29.000Z</time>
      </trkpt>
      <trkpt lat="46.24063" lon="6.76259">
        <ele>1432.31</ele>
        <time>2021-02-21T12:25:39.000Z</time>
      </trkpt>
      <trkpt lat="46.24066" lon="6.7626">
        <ele>1432.04</ele>
        <time>2021-02-21T12:25:49.000Z</time>
      </trkpt>
      <trkpt lat="46.2407" lon="6.76256">
        <ele>1430.08</ele>
        <time>2021-02-21T12:25:59.000Z</time>
      </trkpt>
      <trkpt lat="46.24082" lon="6.76255">
        <ele>1429.14</ele>
        <time>2021-02-21T12:26:09.000Z</time>
      </trkpt>
      <trkpt lat="46.24088" lon="6.76255">
        <ele>1428.59</ele>
        <time>2021-02-21T12:26:19.000Z</time>
      </trkpt>
      <trkpt lat="46.24095" lon="6.76256">
        <ele>1427.88</ele>
        <time>2021-02-21T12:26:29.000Z</time>
      </trkpt>
      <trkpt lat="46.24104" lon="6.76256">
        <ele>1427.17</ele>
        <time>2021-02-21T12:26:39.000Z</time>
      </trkpt>
      <trkpt lat="46.24111" lon="6.76252">
        <ele>1426.14</ele>
        <time>2021-02-21T12:26:49.000Z</time>
      </trkpt>
      <trkpt lat="46.2412" lon="6.76244">
        <ele>1425.45</ele>
        <time>2021-02-21T12:26:59.000Z</time>
      </trkpt>
      <trkpt lat="46.24128" lon="6.76236">
        <ele>1425.87</ele>
        <time>2021-02-21T12:27:09.000Z</time>
      </trkpt>
      <trkpt lat="46.24138" lon="6.76234">
        <ele>1425.4</ele>
        <time>2021-02-21T12:27:19.000Z</time>
      </trkpt>
      <trkpt lat="46.24146" lon="6.76231">
        <ele>1424.26</ele>
        <time>2021-02-21T12:27:29.000Z</time>
      </trkpt>
      <trkpt lat="46.24152" lon="6.76228">
        <ele>1424.63</ele>
        <time>2021-02-21T12:27:39.000Z</time>
      </trkpt>
      <trkpt lat="46.2416" lon="6.76225">
        <ele>1424.05</ele>
        <time>2021-02-21T12:27:49.000Z</time>
      </trkpt>
      <trkpt lat="46.24163" lon="6.76223">
        <ele>1423.34</ele>
        <time>2021-02-21T12:27:59.000Z</time>
      </trkpt>
      <trkpt lat="46.24166" lon="6.76222">
        <ele>1422.25</ele>
        <time>2021-02-21T12:28:09.000Z</time>
      </trkpt>
      <trkpt lat="46.24174" lon="6.76227">
        <ele>1419.91</ele>
        <time>2021-02-21T12:28:19.000Z</time>
      </trkpt>
      <trkpt lat="46.24181" lon="6.76226">
        <ele>1419.32</ele>
        <time>2021-02-21T12:28:29.000Z</time>
      </trkpt>
      <trkpt lat="46.24189" lon="6.76226">
        <ele>1418.25</ele>
        <time>2021-02-21T12:28:39.000Z</time>
      </trkpt>
      <trkpt lat="46.2419" lon="6.76225">
        <ele>1418.26</ele>
        <time>2021-02-21T12:28:49.000Z</time>
      </trkpt>
      <trkpt lat="46.24198" lon="6.76225">
        <ele>1416.98</ele>
        <time>2021-02-21T12:28:59.000Z</time>
      </trkpt>
      <trkpt lat="46.24203" lon="6.76233">
        <ele>1416.07</ele>
        <time>2021-02-21T12:29:09.000Z</time>
      </trkpt>
      <trkpt lat="46.24207" lon="6.76244">
        <ele>1414.62</ele>
        <time>2021-02-21T12:29:19.000Z</time>
      </trkpt>
      <trkpt lat="46.24209" lon="6.76257">
        <ele>1413.05</ele>
        <time>2021-02-21T12:29:29.000Z</time>
      </trkpt>
      <trkpt lat="46.24201" lon="6.76265">
        <ele>1412.41</ele>
        <time>2021-02-21T12:29:39.000Z</time>
      </trkpt>
      <trkpt lat="46.24192" lon="6.76267">
        <ele>1410.73</ele>
        <time>2021-02-21T12:29:49.000Z</time>
      </trkpt>
      <trkpt lat="46.24188" lon="6.76272">
        <ele>1410.03</ele>
        <time>2021-02-21T12:29:59.000Z</time>
      </trkpt>
      <trkpt lat="46.24187" lon="6.76273">
        <ele>1410.45</ele>
        <time>2021-02-21T12:30:14.000Z</time>
      </trkpt>
      <trkpt lat="46.24179" lon="6.76275">
        <ele>1409.57</ele>
        <time>2021-02-21T12:30:24.000Z</time>
      </trkpt>
      <trkpt lat="46.24172" lon="6.76276">
        <ele>1408.37</ele>
        <time>2021-02-21T12:30:34.000Z</time>
      </trkpt>
      <trkpt lat="46.24167" lon="6.76282">
        <ele>1407.14</ele>
        <time>2021-02-21T12:30:44.000Z</time>
      </trkpt>
      <trkpt lat="46.24154" lon="6.76286">
        <ele>1406.52</ele>
        <time>2021-02-21T12:30:54.000Z</time>
      </trkpt>
      <trkpt lat="46.24144" lon="6.7629">
        <ele>1404.94</ele>
        <time>2021-02-21T12:31:04.000Z</time>
      </trkpt>
      <trkpt lat="46.24135" lon="6.76294">
        <ele>1403.86</ele>
        <time>2021-02-21T12:31:14.000Z</time>
      </trkpt>
      <trkpt lat="46.24129" lon="6.76297">
        <ele>1402.98</ele>
        <time>2021-02-21T12:31:24.000Z</time>
      </trkpt>
      <trkpt lat="46.24122" lon="6.763">
        <ele>1401.73</ele>
        <time>2021-02-21T12:31:34.000Z</time>
      </trkpt>
      <trkpt lat="46.24122" lon="6.76311">
        <ele>1400.41</ele>
        <time>2021-02-21T12:31:44.000Z</time>
      </trkpt>
      <trkpt lat="46.24129" lon="6.76311">
        <ele>1399.56</ele>
        <time>2021-02-21T12:31:54.000Z</time>
      </trkpt>
      <trkpt lat="46.24136" lon="6.76312">
        <ele>1398.68</ele>
        <time>2021-02-21T12:32:04.000Z</time>
      </trkpt>
      <trkpt lat="46.24147" lon="6.76317">
        <ele>1397.76</ele>
        <time>2021-02-21T12:32:14.000Z</time>
      </trkpt>
      <trkpt lat="46.24157" lon="6.76318">
        <ele>1396.78</ele>
        <time>2021-02-21T12:32:24.000Z</time>
      </trkpt>
      <trkpt lat="46.24168" lon="6.76319">
        <ele>1396.15</ele>
        <time>2021-02-21T12:32:34.000Z</time>
      </trkpt>
      <trkpt lat="46.24177" lon="6.76321">
        <ele>1395</ele>
        <time>2021-02-21T12:32:44.000Z</time>
      </trkpt>
      <trkpt lat="46.24188" lon="6.76323">
        <ele>1393.89</ele>
        <time>2021-02-21T12:32:54.000Z</time>
      </trkpt>
      <trkpt lat="46.24194" lon="6.76333">
        <ele>1392.95</ele>
        <time>2021-02-21T12:33:04.000Z</time>
      </trkpt>
      <trkpt lat="46.24197" lon="6.76343">
        <ele>1392.63</ele>
        <time>2021-02-21T12:33:14.000Z</time>
      </trkpt>
      <trkpt lat="46.2419" lon="6.76352">
        <ele>1391.1</ele>
        <time>2021-02-21T12:33:24.000Z</time>
      </trkpt>
      <trkpt lat="46.2418" lon="6.76355">
        <ele>1389.8</ele>
        <time>2021-02-21T12:33:34.000Z</time>
      </trkpt>
      <trkpt lat="46.24169" lon="6.76357">
        <ele>1388.2</ele>
        <time>2021-02-21T12:33:44.000Z</time>
      </trkpt>
      <trkpt lat="46.24163" lon="6.76358">
        <ele>1387.38</ele>
        <time>2021-02-21T12:33:54.000Z</time>
      </trkpt>
      <trkpt lat="46.24162" lon="6.76359">
        <ele>1387.83</ele>
        <time>2021-02-21T12:34:09.000Z</time>
      </trkpt>
      <trkpt lat="46.24153" lon="6.76362">
        <ele>1386.66</ele>
        <time>2021-02-21T12:34:19.000Z</time>
      </trkpt>
      <trkpt lat="46.24146" lon="6.76369">
        <ele>1385.28</ele>
        <time>2021-02-21T12:34:29.000Z</time>
      </trkpt>
      <trkpt lat="46.24139" lon="6.76368">
        <ele>1384.16</ele>
        <time>2021-02-21T12:34:39.000Z</time>
      </trkpt>
      <trkpt lat="46.24129" lon="6.76372">
        <ele>1383.29</ele>
        <time>2021-02-21T12:34:49.000Z</time>
      </trkpt>
      <trkpt lat="46.2412" lon="6.76375">
        <ele>1382.26</ele>
        <time>2021-02-21T12:34:59.000Z</time>
      </trkpt>
      <trkpt lat="46.2411" lon="6.76376">
        <ele>1381.1</ele>
        <time>2021-02-21T12:35:09.000Z</time>
      </trkpt>
      <trkpt lat="46.24101" lon="6.76381">
        <ele>1379.97</ele>
        <time>2021-02-21T12:35:19.000Z</time>
      </trkpt>
      <trkpt lat="46.24097" lon="6.76392">
        <ele>1378.48</ele>
        <time>2021-02-21T12:35:29.000Z</time>
      </trkpt>
      <trkpt lat="46.24101" lon="6.764">
        <ele>1377.09</ele>
        <time>2021-02-21T12:35:39.000Z</time>
      </trkpt>
      <trkpt lat="46.24111" lon="6.76401">
        <ele>1376.33</ele>
        <time>2021-02-21T12:35:49.000Z</time>
      </trkpt>
      <trkpt lat="46.24121" lon="6.76403">
        <ele>1375.47</ele>
        <time>2021-02-21T12:35:59.000Z</time>
      </trkpt>
      <trkpt lat="46.24128" lon="6.76403">
        <ele>1374.16</ele>
        <time>2021-02-21T12:36:09.000Z</time>
      </trkpt>
      <trkpt lat="46.24137" lon="6.7641">
        <ele>1373.09</ele>
        <time>2021-02-21T12:36:19.000Z</time>
      </trkpt>
      <trkpt lat="46.24147" lon="6.76416">
        <ele>1372.33</ele>
        <time>2021-02-21T12:36:29.000Z</time>
      </trkpt>
      <trkpt lat="46.24156" lon="6.76424">
        <ele>1371.24</ele>
        <time>2021-02-21T12:36:39.000Z</time>
      </trkpt>
      <trkpt lat="46.24163" lon="6.76431">
        <ele>1369.87</ele>
        <time>2021-02-21T12:36:49.000Z</time>
      </trkpt>
      <trkpt lat="46.24173" lon="6.76435">
        <ele>1368.92</ele>
        <time>2021-02-21T12:36:59.000Z</time>
      </trkpt>
      <trkpt lat="46.24181" lon="6.76441">
        <ele>1368.27</ele>
        <time>2021-02-21T12:37:09.000Z</time>
      </trkpt>
      <trkpt lat="46.24191" lon="6.76448">
        <ele>1366.64</ele>
        <time>2021-02-21T12:37:19.000Z</time>
      </trkpt>
      <trkpt lat="46.24201" lon="6.76451">
        <ele>1365.38</ele>
        <time>2021-02-21T12:37:29.000Z</time>
      </trkpt>
      <trkpt lat="46.24202" lon="6.76453">
        <ele>1365.55</ele>
        <time>2021-02-21T12:37:41.000Z</time>
      </trkpt>
      <trkpt lat="46.24211" lon="6.7646">
        <ele>1364.23</ele>
        <time>2021-02-21T12:37:51.000Z</time>
      </trkpt>
      <trkpt lat="46.24221" lon="6.76465">
        <ele>1362.99</ele>
        <time>2021-02-21T12:38:01.000Z</time>
      </trkpt>
      <trkpt lat="46.2423" lon="6.76473">
        <ele>1362.25</ele>
        <time>2021-02-21T12:38:11.000Z</time>
      </trkpt>
      <trkpt lat="46.2424" lon="6.76478">
        <ele>1361.02</ele>
        <time>2021-02-21T12:38:21.000Z</time>
      </trkpt>
      <trkpt lat="46.24249" lon="6.7648">
        <ele>1360.23</ele>
        <time>2021-02-21T12:38:31.000Z</time>
      </trkpt>
      <trkpt lat="46.24259" lon="6.76485">
        <ele>1359.2</ele>
        <time>2021-02-21T12:38:41.000Z</time>
      </trkpt>
      <trkpt lat="46.2427" lon="6.76488">
        <ele>1358.21</ele>
        <time>2021-02-21T12:38:51.000Z</time>
      </trkpt>
      <trkpt lat="46.24279" lon="6.76489">
        <ele>1356.95</ele>
        <time>2021-02-21T12:39:01.000Z</time>
      </trkpt>
      <trkpt lat="46.2429" lon="6.76492">
        <ele>1356.2</ele>
        <time>2021-02-21T12:39:11.000Z</time>
      </trkpt>
      <trkpt lat="46.24299" lon="6.76494">
        <ele>1355.45</ele>
        <time>2021-02-21T12:39:21.000Z</time>
      </trkpt>
      <trkpt lat="46.24304" lon="6.76499">
        <ele>1354.75</ele>
        <time>2021-02-21T12:39:31.000Z</time>
      </trkpt>
      <trkpt lat="46.24314" lon="6.765">
        <ele>1353.68</ele>
        <time>2021-02-21T12:39:41.000Z</time>
      </trkpt>
      <trkpt lat="46.24326" lon="6.76497">
        <ele>1352.79</ele>
        <time>2021-02-21T12:39:51.000Z</time>
      </trkpt>
      <trkpt lat="46.24339" lon="6.76495">
        <ele>1351.47</ele>
        <time>2021-02-21T12:40:01.000Z</time>
      </trkpt>
      <trkpt lat="46.24349" lon="6.76494">
        <ele>1350.47</ele>
        <time>2021-02-21T12:40:11.000Z</time>
      </trkpt>
      <trkpt lat="46.24357" lon="6.76497">
        <ele>1349.41</ele>
        <time>2021-02-21T12:40:21.000Z</time>
      </trkpt>
      <trkpt lat="46.24365" lon="6.76492">
        <ele>1349.12</ele>
        <time>2021-02-21T12:40:31.000Z</time>
      </trkpt>
      <trkpt lat="46.24371" lon="6.76491">
        <ele>1348.35</ele>
        <time>2021-02-21T12:40:41.000Z</time>
      </trkpt>
      <trkpt lat="46.24376" lon="6.76493">
        <ele>1347.5</ele>
        <time>2021-02-21T12:40:51.000Z</time>
      </trkpt>
      <trkpt lat="46.24386" lon="6.76492">
        <ele>1346.54</ele>
        <time>2021-02-21T12:41:01.000Z</time>
      </trkpt>
      <trkpt lat="46.24395" lon="6.76493">
        <ele>1345.89</ele>
        <time>2021-02-21T12:41:11.000Z</time>
      </trkpt>
      <trkpt lat="46.24403" lon="6.76492">
        <ele>1345.02</ele>
        <time>2021-02-21T12:41:21.000Z</time>
      </trkpt>
      <trkpt lat="46.24413" lon="6.76489">
        <ele>1344.13</ele>
        <time>2021-02-21T12:41:31.000Z</time>
      </trkpt>
      <trkpt lat="46.24423" lon="6.76483">
        <ele>1343.05</ele>
        <time>2021-02-21T12:41:41.000Z</time>
      </trkpt>
      <trkpt lat="46.24429" lon="6.76482">
        <ele>1342.97</ele>
        <time>2021-02-21T12:41:51.000Z</time>
      </trkpt>
      <trkpt lat="46.24434" lon="6.76475">
        <ele>1342.18</ele>
        <time>2021-02-21T12:42:01.000Z</time>
      </trkpt>
      <trkpt lat="46.24442" lon="6.76464">
        <ele>1341.36</ele>
        <time>2021-02-21T12:42:11.000Z</time>
      </trkpt>
      <trkpt lat="46.24448" lon="6.7645">
        <ele>1341</ele>
        <time>2021-02-21T12:42:21.000Z</time>
      </trkpt>
      <trkpt lat="46.24452" lon="6.76436">
        <ele>1340.51</ele>
        <time>2021-02-21T12:42:31.000Z</time>
      </trkpt>
      <trkpt lat="46.24451" lon="6.76422">
        <ele>1339.81</ele>
        <time>2021-02-21T12:42:41.000Z</time>
      </trkpt>
      <trkpt lat="46.24446" lon="6.76408">
        <ele>1339.11</ele>
        <time>2021-02-21T12:42:51.000Z</time>
      </trkpt>
      <trkpt lat="46.24442" lon="6.76397">
        <ele>1338.42</ele>
        <time>2021-02-21T12:43:01.000Z</time>
      </trkpt>
      <trkpt lat="46.24438" lon="6.76388">
        <ele>1337.58</ele>
        <time>2021-02-21T12:43:11.000Z</time>
      </trkpt>
      <trkpt lat="46.24428" lon="6.76377">
        <ele>1337.01</ele>
        <time>2021-02-21T12:43:21.000Z</time>
      </trkpt>
      <trkpt lat="46.24416" lon="6.76366">
        <ele>1336.2</ele>
        <time>2021-02-21T12:43:31.000Z</time>
      </trkpt>
      <trkpt lat="46.24414" lon="6.76354">
        <ele>1334.75</ele>
        <time>2021-02-21T12:43:41.000Z</time>
      </trkpt>
      <trkpt lat="46.24414" lon="6.76339">
        <ele>1333.63</ele>
        <time>2021-02-21T12:43:51.000Z</time>
      </trkpt>
      <trkpt lat="46.24414" lon="6.76324">
        <ele>1333.03</ele>
        <time>2021-02-21T12:44:01.000Z</time>
      </trkpt>
      <trkpt lat="46.24415" lon="6.76308">
        <ele>1332.06</ele>
        <time>2021-02-21T12:44:11.000Z</time>
      </trkpt>
      <trkpt lat="46.2442" lon="6.76295">
        <ele>1330.83</ele>
        <time>2021-02-21T12:44:21.000Z</time>
      </trkpt>
      <trkpt lat="46.24422" lon="6.76279">
        <ele>1330.32</ele>
        <time>2021-02-21T12:44:31.000Z</time>
      </trkpt>
      <trkpt lat="46.24428" lon="6.76266">
        <ele>1329.13</ele>
        <time>2021-02-21T12:44:41.000Z</time>
      </trkpt>
      <trkpt lat="46.24432" lon="6.76251">
        <ele>1327.37</ele>
        <time>2021-02-21T12:44:51.000Z</time>
      </trkpt>
      <trkpt lat="46.24433" lon="6.76239">
        <ele>1326.81</ele>
        <time>2021-02-21T12:45:01.000Z</time>
      </trkpt>
      <trkpt lat="46.24439" lon="6.76226">
        <ele>1325.41</ele>
        <time>2021-02-21T12:45:11.000Z</time>
      </trkpt>
      <trkpt lat="46.24444" lon="6.76211">
        <ele>1324.64</ele>
        <time>2021-02-21T12:45:21.000Z</time>
      </trkpt>
      <trkpt lat="46.24449" lon="6.762">
        <ele>1323.48</ele>
        <time>2021-02-21T12:45:31.000Z</time>
      </trkpt>
      <trkpt lat="46.24453" lon="6.76187">
        <ele>1322.68</ele>
        <time>2021-02-21T12:45:41.000Z</time>
      </trkpt>
      <trkpt lat="46.24458" lon="6.76174">
        <ele>1321.77</ele>
        <time>2021-02-21T12:45:51.000Z</time>
      </trkpt>
      <trkpt lat="46.24463" lon="6.7616">
        <ele>1320.91</ele>
        <time>2021-02-21T12:46:01.000Z</time>
      </trkpt>
      <trkpt lat="46.24468" lon="6.7615">
        <ele>1319.97</ele>
        <time>2021-02-21T12:46:11.000Z</time>
      </trkpt>
      <trkpt lat="46.24473" lon="6.76137">
        <ele>1318.93</ele>
        <time>2021-02-21T12:46:21.000Z</time>
      </trkpt>
      <trkpt lat="46.24477" lon="6.76119">
        <ele>1317.94</ele>
        <time>2021-02-21T12:46:31.000Z</time>
      </trkpt>
      <trkpt lat="46.24476" lon="6.76105">
        <ele>1317.09</ele>
        <time>2021-02-21T12:46:41.000Z</time>
      </trkpt>
      <trkpt lat="46.24476" lon="6.76088">
        <ele>1316.13</ele>
        <time>2021-02-21T12:46:51.000Z</time>
      </trkpt>
      <trkpt lat="46.24473" lon="6.76072">
        <ele>1314.98</ele>
        <time>2021-02-21T12:47:01.000Z</time>
      </trkpt>
      <trkpt lat="46.24472" lon="6.76059">
        <ele>1314.16</ele>
        <time>2021-02-21T12:47:11.000Z</time>
      </trkpt>
      <trkpt lat="46.2447" lon="6.76045">
        <ele>1312.78</ele>
        <time>2021-02-21T12:47:21.000Z</time>
      </trkpt>
      <trkpt lat="46.2447" lon="6.76028">
        <ele>1311.93</ele>
        <time>2021-02-21T12:47:31.000Z</time>
      </trkpt>
      <trkpt lat="46.24469" lon="6.76013">
        <ele>1311.26</ele>
        <time>2021-02-21T12:47:41.000Z</time>
      </trkpt>
      <trkpt lat="46.24467" lon="6.75999">
        <ele>1310.25</ele>
        <time>2021-02-21T12:47:51.000Z</time>
      </trkpt>
      <trkpt lat="46.24465" lon="6.75984">
        <ele>1308.73</ele>
        <time>2021-02-21T12:48:01.000Z</time>
      </trkpt>
      <trkpt lat="46.24466" lon="6.7597">
        <ele>1307.23</ele>
        <time>2021-02-21T12:48:11.000Z</time>
      </trkpt>
      <trkpt lat="46.24463" lon="6.75956">
        <ele>1306.45</ele>
        <time>2021-02-21T12:48:21.000Z</time>
      </trkpt>
      <trkpt lat="46.24464" lon="6.75943">
        <ele>1305.68</ele>
        <time>2021-02-21T12:48:31.000Z</time>
      </trkpt>
      <trkpt lat="46.24464" lon="6.75927">
        <ele>1304.71</ele>
        <time>2021-02-21T12:48:41.000Z</time>
      </trkpt>
      <trkpt lat="46.24464" lon="6.75915">
        <ele>1303.35</ele>
        <time>2021-02-21T12:48:51.000Z</time>
      </trkpt>
      <trkpt lat="46.24463" lon="6.75903">
        <ele>1302.14</ele>
        <time>2021-02-21T12:49:01.000Z</time>
      </trkpt>
      <trkpt lat="46.24461" lon="6.75885">
        <ele>1300.66</ele>
        <time>2021-02-21T12:49:11.000Z</time>
      </trkpt>
      <trkpt lat="46.24458" lon="6.75867">
        <ele>1299.66</ele>
        <time>2021-02-21T12:49:21.000Z</time>
      </trkpt>
      <trkpt lat="46.24458" lon="6.75855">
        <ele>1298.43</ele>
        <time>2021-02-21T12:49:31.000Z</time>
      </trkpt>
      <trkpt lat="46.24457" lon="6.75842">
        <ele>1297.27</ele>
        <time>2021-02-21T12:49:41.000Z</time>
      </trkpt>
      <trkpt lat="46.24458" lon="6.75827">
        <ele>1296.2</ele>
        <time>2021-02-21T12:49:51.000Z</time>
      </trkpt>
      <trkpt lat="46.24462" lon="6.75822">
        <ele>1295.12</ele>
        <time>2021-02-21T12:50:01.000Z</time>
      </trkpt>
      <trkpt lat="46.24472" lon="6.75824">
        <ele>1293.79</ele>
        <time>2021-02-21T12:50:11.000Z</time>
      </trkpt>
      <trkpt lat="46.24473" lon="6.75833">
        <ele>1292.7</ele>
        <time>2021-02-21T12:50:21.000Z</time>
      </trkpt>
      <trkpt lat="46.24475" lon="6.75846">
        <ele>1291.2</ele>
        <time>2021-02-21T12:50:31.000Z</time>
      </trkpt>
      <trkpt lat="46.24481" lon="6.75857">
        <ele>1289.77</ele>
        <time>2021-02-21T12:50:41.000Z</time>
      </trkpt>
      <trkpt lat="46.24492" lon="6.75862">
        <ele>1288.27</ele>
        <time>2021-02-21T12:50:51.000Z</time>
      </trkpt>
      <trkpt lat="46.24501" lon="6.75857">
        <ele>1287.11</ele>
        <time>2021-02-21T12:51:01.000Z</time>
      </trkpt>
      <trkpt lat="46.24505" lon="6.75844">
        <ele>1285.75</ele>
        <time>2021-02-21T12:51:11.000Z</time>
      </trkpt>
      <trkpt lat="46.24507" lon="6.75833">
        <ele>1285.06</ele>
        <time>2021-02-21T12:51:21.000Z</time>
      </trkpt>
      <trkpt lat="46.24509" lon="6.75817">
        <ele>1284.17</ele>
        <time>2021-02-21T12:51:31.000Z</time>
      </trkpt>
      <trkpt lat="46.24507" lon="6.75801">
        <ele>1283.1</ele>
        <time>2021-02-21T12:51:41.000Z</time>
      </trkpt>
      <trkpt lat="46.24505" lon="6.75787">
        <ele>1282.62</ele>
        <time>2021-02-21T12:51:51.000Z</time>
      </trkpt>
      <trkpt lat="46.24502" lon="6.7577">
        <ele>1281.4</ele>
        <time>2021-02-21T12:52:01.000Z</time>
      </trkpt>
      <trkpt lat="46.24496" lon="6.75756">
        <ele>1280.16</ele>
        <time>2021-02-21T12:52:11.000Z</time>
      </trkpt>
      <trkpt lat="46.24492" lon="6.75742">
        <ele>1279.2</ele>
        <time>2021-02-21T12:52:21.000Z</time>
      </trkpt>
      <trkpt lat="46.24487" lon="6.75729">
        <ele>1278.34</ele>
        <time>2021-02-21T12:52:31.000Z</time>
      </trkpt>
      <trkpt lat="46.24478" lon="6.75719">
        <ele>1277.53</ele>
        <time>2021-02-21T12:52:41.000Z</time>
      </trkpt>
      <trkpt lat="46.24467" lon="6.75711">
        <ele>1276.56</ele>
        <time>2021-02-21T12:52:51.000Z</time>
      </trkpt>
      <trkpt lat="46.24457" lon="6.75703">
        <ele>1275.6</ele>
        <time>2021-02-21T12:53:01.000Z</time>
      </trkpt>
      <trkpt lat="46.24451" lon="6.75691">
        <ele>1274.65</ele>
        <time>2021-02-21T12:53:11.000Z</time>
      </trkpt>
      <trkpt lat="46.24446" lon="6.7568">
        <ele>1273.8</ele>
        <time>2021-02-21T12:53:21.000Z</time>
      </trkpt>
      <trkpt lat="46.24444" lon="6.75668">
        <ele>1272.92</ele>
        <time>2021-02-21T12:53:31.000Z</time>
      </trkpt>
      <trkpt lat="46.24443" lon="6.75654">
        <ele>1271.72</ele>
        <time>2021-02-21T12:53:41.000Z</time>
      </trkpt>
      <trkpt lat="46.24446" lon="6.7564">
        <ele>1270.58</ele>
        <time>2021-02-21T12:53:51.000Z</time>
      </trkpt>
      <trkpt lat="46.24446" lon="6.75626">
        <ele>1269.53</ele>
        <time>2021-02-21T12:54:01.000Z</time>
      </trkpt>
      <trkpt lat="46.24445" lon="6.75609">
        <ele>1268.68</ele>
        <time>2021-02-21T12:54:11.000Z</time>
      </trkpt>
      <trkpt lat="46.24438" lon="6.75593">
        <ele>1267.93</ele>
        <time>2021-02-21T12:54:21.000Z</time>
      </trkpt>
      <trkpt lat="46.24429" lon="6.75582">
        <ele>1266.79</ele>
        <time>2021-02-21T12:54:31.000Z</time>
      </trkpt>
      <trkpt lat="46.24423" lon="6.7557">
        <ele>1266.6</ele>
        <time>2021-02-21T12:54:41.000Z</time>
      </trkpt>
      <trkpt lat="46.24418" lon="6.75556">
        <ele>1265.23</ele>
        <time>2021-02-21T12:54:51.000Z</time>
      </trkpt>
      <trkpt lat="46.24415" lon="6.75541">
        <ele>1264.44</ele>
        <time>2021-02-21T12:55:01.000Z</time>
      </trkpt>
      <trkpt lat="46.24412" lon="6.75527">
        <ele>1263.79</ele>
        <time>2021-02-21T12:55:11.000Z</time>
      </trkpt>
      <trkpt lat="46.24407" lon="6.75513">
        <ele>1262.68</ele>
        <time>2021-02-21T12:55:21.000Z</time>
      </trkpt>
      <trkpt lat="46.24401" lon="6.75501">
        <ele>1261.5</ele>
        <time>2021-02-21T12:55:31.000Z</time>
      </trkpt>
      <trkpt lat="46.24394" lon="6.75488">
        <ele>1260.42</ele>
        <time>2021-02-21T12:55:41.000Z</time>
      </trkpt>
      <trkpt lat="46.2439" lon="6.75477">
        <ele>1259.41</ele>
        <time>2021-02-21T12:55:51.000Z</time>
      </trkpt>
      <trkpt lat="46.24387" lon="6.75472">
        <ele>1259.4</ele>
        <time>2021-02-21T12:56:01.000Z</time>
      </trkpt>
      <trkpt lat="46.24389" lon="6.75472">
        <ele>1259.29</ele>
        <time>2021-02-21T12:56:13.000Z</time>
      </trkpt>
      <trkpt lat="46.24393" lon="6.75462">
        <ele>1258.55</ele>
        <time>2021-02-21T12:56:23.000Z</time>
      </trkpt>
      <trkpt lat="46.24406" lon="6.75467">
        <ele>1257.83</ele>
        <time>2021-02-21T12:56:33.000Z</time>
      </trkpt>
      <trkpt lat="46.24409" lon="6.75479">
        <ele>1256.82</ele>
        <time>2021-02-21T12:56:43.000Z</time>
      </trkpt>
      <trkpt lat="46.24411" lon="6.75488">
        <ele>1255.45</ele>
        <time>2021-02-21T12:56:53.000Z</time>
      </trkpt>
      <trkpt lat="46.24414" lon="6.75501">
        <ele>1254.13</ele>
        <time>2021-02-21T12:57:03.000Z</time>
      </trkpt>
      <trkpt lat="46.24419" lon="6.75512">
        <ele>1252.67</ele>
        <time>2021-02-21T12:57:13.000Z</time>
      </trkpt>
      <trkpt lat="46.24431" lon="6.75525">
        <ele>1251.38</ele>
        <time>2021-02-21T12:57:23.000Z</time>
      </trkpt>
      <trkpt lat="46.24441" lon="6.75537">
        <ele>1250.22</ele>
        <time>2021-02-21T12:57:33.000Z</time>
      </trkpt>
      <trkpt lat="46.24452" lon="6.75546">
        <ele>1248.98</ele>
        <time>2021-02-21T12:57:43.000Z</time>
      </trkpt>
      <trkpt lat="46.24464" lon="6.75547">
        <ele>1248.21</ele>
        <time>2021-02-21T12:57:53.000Z</time>
      </trkpt>
      <trkpt lat="46.24464" lon="6.75545">
        <ele>1247.71</ele>
        <time>2021-02-21T12:58:03.000Z</time>
      </trkpt>
      <trkpt lat="46.24463" lon="6.75546">
        <ele>1248.16</ele>
        <time>2021-02-21T12:58:20.000Z</time>
      </trkpt>
      <trkpt lat="46.24464" lon="6.75547">
        <ele>1247.67</ele>
        <time>2021-02-21T12:58:39.000Z</time>
      </trkpt>
      <trkpt lat="46.24466" lon="6.75548">
        <ele>1247.37</ele>
        <time>2021-02-21T12:58:49.000Z</time>
      </trkpt>
      <trkpt lat="46.24465" lon="6.75547">
        <ele>1247.5</ele>
        <time>2021-02-21T12:59:15.000Z</time>
      </trkpt>
      <trkpt lat="46.24464" lon="6.75547">
        <ele>1247.47</ele>
        <time>2021-02-21T12:59:46.000Z</time>
      </trkpt>
      <trkpt lat="46.24462" lon="6.75548">
        <ele>1247.46</ele>
        <time>2021-02-21T13:00:13.000Z</time>
      </trkpt>
      <trkpt lat="46.24464" lon="6.75549">
        <ele>1247.27</ele>
        <time>2021-02-21T13:00:33.000Z</time>
      </trkpt>
      <trkpt lat="46.24478" lon="6.75555">
        <ele>1245.89</ele>
        <time>2021-02-21T13:00:43.000Z</time>
      </trkpt>
      <trkpt lat="46.24492" lon="6.75559">
        <ele>1244.96</ele>
        <time>2021-02-21T13:00:53.000Z</time>
      </trkpt>
      <trkpt lat="46.24507" lon="6.75561">
        <ele>1243.5</ele>
        <time>2021-02-21T13:01:03.000Z</time>
      </trkpt>
      <trkpt lat="46.24521" lon="6.75563">
        <ele>1242.09</ele>
        <time>2021-02-21T13:01:13.000Z</time>
      </trkpt>
      <trkpt lat="46.24534" lon="6.75565">
        <ele>1240.12</ele>
        <time>2021-02-21T13:01:23.000Z</time>
      </trkpt>
      <trkpt lat="46.24549" lon="6.75569">
        <ele>1239.27</ele>
        <time>2021-02-21T13:01:33.000Z</time>
      </trkpt>
      <trkpt lat="46.24562" lon="6.75568">
        <ele>1237.33</ele>
        <time>2021-02-21T13:01:43.000Z</time>
      </trkpt>
      <trkpt lat="46.24574" lon="6.75563">
        <ele>1235.8</ele>
        <time>2021-02-21T13:01:53.000Z</time>
      </trkpt>
      <trkpt lat="46.24587" lon="6.75565">
        <ele>1233.89</ele>
        <time>2021-02-21T13:02:03.000Z</time>
      </trkpt>
      <trkpt lat="46.24601" lon="6.75565">
        <ele>1231.58</ele>
        <time>2021-02-21T13:02:13.000Z</time>
      </trkpt>
      <trkpt lat="46.24611" lon="6.75564">
        <ele>1229.58</ele>
        <time>2021-02-21T13:02:23.000Z</time>
      </trkpt>
      <trkpt lat="46.24622" lon="6.75562">
        <ele>1228.44</ele>
        <time>2021-02-21T13:02:33.000Z</time>
      </trkpt>
      <trkpt lat="46.24635" lon="6.75562">
        <ele>1226.57</ele>
        <time>2021-02-21T13:02:43.000Z</time>
      </trkpt>
      <trkpt lat="46.24647" lon="6.75558">
        <ele>1224.9</ele>
        <time>2021-02-21T13:02:53.000Z</time>
      </trkpt>
      <trkpt lat="46.2466" lon="6.75555">
        <ele>1223.67</ele>
        <time>2021-02-21T13:03:03.000Z</time>
      </trkpt>
      <trkpt lat="46.24668" lon="6.75544">
        <ele>1222.34</ele>
        <time>2021-02-21T13:03:13.000Z</time>
      </trkpt>
      <trkpt lat="46.24678" lon="6.75536">
        <ele>1220.97</ele>
        <time>2021-02-21T13:03:23.000Z</time>
      </trkpt>
      <trkpt lat="46.2469" lon="6.75528">
        <ele>1219.53</ele>
        <time>2021-02-21T13:03:33.000Z</time>
      </trkpt>
      <trkpt lat="46.24706" lon="6.75528">
        <ele>1218.37</ele>
        <time>2021-02-21T13:03:43.000Z</time>
      </trkpt>
      <trkpt lat="46.24719" lon="6.75528">
        <ele>1216.78</ele>
        <time>2021-02-21T13:03:53.000Z</time>
      </trkpt>
      <trkpt lat="46.24731" lon="6.75528">
        <ele>1215.37</ele>
        <time>2021-02-21T13:04:03.000Z</time>
      </trkpt>
      <trkpt lat="46.24743" lon="6.75524">
        <ele>1213.88</ele>
        <time>2021-02-21T13:04:13.000Z</time>
      </trkpt>
      <trkpt lat="46.24752" lon="6.75517">
        <ele>1212.26</ele>
        <time>2021-02-21T13:04:23.000Z</time>
      </trkpt>
      <trkpt lat="46.24762" lon="6.75515">
        <ele>1211.21</ele>
        <time>2021-02-21T13:04:33.000Z</time>
      </trkpt>
      <trkpt lat="46.24766" lon="6.75511">
        <ele>1210.73</ele>
        <time>2021-02-21T13:04:43.000Z</time>
      </trkpt>
      <trkpt lat="46.24769" lon="6.7551">
        <ele>1209.82</ele>
        <time>2021-02-21T13:04:53.000Z</time>
      </trkpt>
      <trkpt lat="46.24777" lon="6.75506">
        <ele>1209.18</ele>
        <time>2021-02-21T13:05:03.000Z</time>
      </trkpt>
      <trkpt lat="46.2478" lon="6.75504">
        <ele>1208.33</ele>
        <time>2021-02-21T13:05:13.000Z</time>
      </trkpt>
      <trkpt lat="46.24781" lon="6.75503">
        <ele>1208.03</ele>
        <time>2021-02-21T13:05:35.000Z</time>
      </trkpt>
      <trkpt lat="46.24783" lon="6.75504">
        <ele>1208.11</ele>
        <time>2021-02-21T13:05:45.000Z</time>
      </trkpt>
      <trkpt lat="46.24783" lon="6.75502">
        <ele>1208.37</ele>
        <time>2021-02-21T13:05:56.000Z</time>
      </trkpt>
      <trkpt lat="46.24779" lon="6.75504">
        <ele>1208.35</ele>
        <time>2021-02-21T13:06:06.000Z</time>
      </trkpt>
      <trkpt lat="46.24783" lon="6.75497">
        <ele>1208.7</ele>
        <time>2021-02-21T13:06:16.000Z</time>
      </trkpt>
      <trkpt lat="46.24781" lon="6.75497">
        <ele>1208.76</ele>
        <time>2021-02-21T13:06:26.000Z</time>
      </trkpt>
      <trkpt lat="46.2478" lon="6.75498">
        <ele>1208.6</ele>
        <time>2021-02-21T13:06:36.000Z</time>
      </trkpt>
      <trkpt lat="46.24779" lon="6.75499">
        <ele>1208.69</ele>
        <time>2021-02-21T13:06:46.000Z</time>
      </trkpt>
      <trkpt lat="46.24779" lon="6.75497">
        <ele>1208.18</ele>
        <time>2021-02-21T13:07:02.000Z</time>
      </trkpt>
      <trkpt lat="46.24779" lon="6.75499">
        <ele>1208.22</ele>
        <time>2021-02-21T13:07:12.000Z</time>
      </trkpt>
      <trkpt lat="46.2478" lon="6.755">
        <ele>1208.15</ele>
        <time>2021-02-21T13:07:22.000Z</time>
      </trkpt>
      <trkpt lat="46.2478" lon="6.75502">
        <ele>1208.78</ele>
        <time>2021-02-21T13:07:51.000Z</time>
      </trkpt>
      <trkpt lat="46.24781" lon="6.75501">
        <ele>1208.27</ele>
        <time>2021-02-21T13:09:45.000Z</time>
      </trkpt>
      <trkpt lat="46.24781" lon="6.755">
        <ele>1208.71</ele>
        <time>2021-02-21T13:09:53.000Z</time>
      </trkpt>
    </trkseg>
  </trk>
</gpx>